METAR Data
IDs: Format: Raw Decoded Include TAF

Data at: 0419 UTC 26 May 2022

EDDL 260350Z AUTO 25013KT 9000 -RADZ FEW007 BKN018 14/12 Q1018 NOSIG